Aeroporto :
LOGIN :

Iscrizione | Disclaimer

   EN    FR    IT 

 










Sommario :    VFR   VFR Marginale   IFR   IFR Intensivo   IFR Molto Intensivo
Visibilità : 
Base nubi : 
>= 8 km
>= 3000ft
5 / 8 km
1000 / 3000 ft
1500m / 5 km
500 / 1000 ft
800 / 1500m
200 / 500 ft
< 800m
< 200 ft
Simboli :   Temporali  Nebbia  Neve Forte  Precipitazioni Forti  Vento > 20 kt
SIGMETs :   Varie  Temporali  Ghiacco  Turbolenza  Onda orograficha  Ceneri Vulcaniche






- Altitudine del aeroporto : 13 ft
- Codice IATA : OST


EBOS - Oostend bruges Int.

ULTIMO METAR :
  • 021950Z 24011KT 9999 SCT040 08/05 Q1013 NOSIG

METARs OBSOLETI :
  • 021920Z 24009KT 9999 FEW026 BKN048 09/05 Q1013 NOSIG
  • 021850Z 24012KT 9999 FEW026 BKN048 09/05 Q1013 NOSIG
  • 021820Z 25011KT 9999 FEW026 BKN048 09/05 Q1013 NOSIG
  • 021750Z 25012KT 9999 FEW026 BKN048 09/04 Q1013 NOSIG
  • 021720Z 26012KT 9999 FEW026 09/05 Q1013 NOSIG

TAF TAF EBOS
Valido dal 02 a 18 ore il 04 a 00 ore UTC


021720Z 0218/0324 25012KT 9999 SCT028
PROB30
TEMPO 0218/0222 4000 SHRA BKN013
BECMG 0223/0301 32013KT
PROB30
TEMPO 0302/0309 4000 SHRA BKN013
BECMG 0318/0320 20006KT



MetMap, La meteo Aeronautica in un colpo d'occhio ! - Copyright ORBIFLY Dicembre 2007 - Disclaimer

ORBIFLY MET'MAP TEAM :

Programmazione e sviluppo : Alexandra Zaïnal
Concezione : Baudouin d'Aumeries
Aiuto per la programmazione : Marc-Olivier Méhu
Supporto tecnico e logistico : Manuel Goepfert
Aiuto per la traduzione : Arnaldo La Scala

Contatto : metmap@orbifly.com




FONTI E CREDITI :

   NOAA